Summary for KCOGRAND2

Redlands, Southcamp Road & Dakota Circle, Grand Junction, CO 81507
Join the PWSweather.com Network
View data in metric units
Latest Conditions
Updated 2:00:20 PM MDT Sunday, Sep 21, 2014
Data Currently Today's Max Today's Min Today's Average
Temperature 76.5°F24.7°C 77.9°F25.5°C 63.1°F17.3°C 71.3°F21.8°C
Dew Point 43.5°F6.4°C 54.7°F12.6°C 19.2°F-7.1°C 40.7°F4.8°C
Winds 7.0 mph NNW11.3 kmh NNW 21.0 mph N33.8 kmh N 1.0 mph1.6 kmh 9.6 mph15.4 kmh
Wind Gusts 11.6 mph18.7 kmh 33.1 mph53.3 kmh 3.1 mph5.0 kmh 15.7 mph25.3 kmh
Humidity 31% 73% 13% 37%
Pressure 25.19 in853.0 mb 25.25 in855.1 mb 25.10 in850.0 mb 25.19 in853.0 mb
Precipitation 0.00 in0.0 mm - - 0.00 in0.0 mm
Trends
 
Station Profile
Redlands, Southcamp Road & Dakota CircleGrand Junction, CO 81507

Lat: 39.055, Lon: -108.637
Elevation: 4870
Station Type: RadioShack WX200

Detailed Summary for Sun, Sep 21, 2014
Hour (MDT) Temperature Dew Point Humidity Winds Wind Gusts Pressure Precip Precip Rate Daily Precip Total
02:00 PM 76.5°F24.7°C 43.5°F6.4°C 31% 7.0 mph NNW11.3 kmh NNW 11.6 mph18.7 kmh 25.19 in853.0 mb 0.00 in0.0 mm 0.00 in/hr0.0 mm/hr 0.00 in0.0 mm
01:55 PM 76.1°F24.5°C 43.3°F6.3°C 31% 7.0 mph NNW11.3 kmh NNW 13.9 mph22.4 kmh 25.19 in853.0 mb 0.00 in0.0 mm 0.00 in/hr0.0 mm/hr 0.00 in0.0 mm
01:50 PM 76.1°F24.5°C 44.1°F6.7°C 32% 7.0 mph NW11.3 kmh NW 11.0 mph17.7 kmh 25.19 in853.0 mb 0.00 in0.0 mm 0.00 in/hr0.0 mm/hr 0.00 in0.0 mm
01:45 PM 75.7°F24.3°C 43.7°F6.5°C 32% 7.0 mph NNW11.3 kmh NNW 14.3 mph23.0 kmh 25.19 in853.0 mb 0.00 in0.0 mm 0.00 in/hr0.0 mm/hr 0.00 in0.0 mm
01:40 PM 76.8°F24.9°C 45.5°F7.5°C 33% 6.0 mph NW9.7 kmh NW 12.5 mph20.1 kmh 25.19 in853.0 mb 0.00 in0.0 mm 0.00 in/hr0.0 mm/hr 0.00 in0.0 mm
01:35 PM 76.3°F24.6°C 45.0°F7.2°C 33% 6.0 mph NW9.7 kmh NW 12.1 mph19.5 kmh 25.19 in853.0 mb 0.00 in0.0 mm 0.00 in/hr0.0 mm/hr 0.00 in0.0 mm
01:30 PM 75.6°F24.2°C 44.4°F6.9°C 33% 6.0 mph NW9.7 kmh NW 13.9 mph22.4 kmh 25.22 in854.0 mb 0.00 in0.0 mm 0.00 in/hr0.0 mm/hr 0.00 in0.0 mm
01:25 PM 75.4°F24.1°C 45.9°F7.7°C 35% 7.0 mph NW11.3 kmh NW 15.2 mph24.5 kmh 25.22 in854.0 mb 0.00 in0.0 mm 0.00 in/hr0.0 mm/hr 0.00 in0.0 mm
01:20 PM 75.4°F24.1°C 46.6°F8.1°C 36% 7.0 mph NW11.3 kmh NW 14.3 mph23.0 kmh 25.22 in854.0 mb 0.00 in0.0 mm 0.00 in/hr0.0 mm/hr 0.00 in0.0 mm
01:15 PM 74.8°F23.8°C 46.0°F7.8°C 36% 6.0 mph NW9.7 kmh NW 12.5 mph20.1 kmh 25.22 in854.0 mb 0.00 in0.0 mm 0.00 in/hr0.0 mm/hr 0.00 in0.0 mm
01:10 PM 76.8°F24.9°C 50.0°F10.0°C 39% 6.0 mph NW9.7 kmh NW 11.2 mph18.0 kmh 25.22 in854.0 mb 0.00 in0.0 mm 0.00 in/hr0.0 mm/hr 0.00 in0.0 mm
01:05 PM 73.9°F23.3°C 48.0°F8.9°C 40% 8.0 mph NW12.9 kmh NW 12.5 mph20.1 kmh 25.22 in854.0 mb 0.00 in0.0 mm 0.00 in/hr0.0 mm/hr 0.00 in0.0 mm
01:00 PM 75.0°F23.9°C 49.6°F9.8°C 41% 8.0 mph NNW12.9 kmh NNW 13.9 mph22.4 kmh 25.22 in854.0 mb 0.00 in0.0 mm 0.00 in/hr0.0 mm/hr 0.00 in0.0 mm
12:55 PM 73.4°F23.0°C 47.7°F8.7°C 40% 8.0 mph NNW12.9 kmh NNW 14.3 mph23.0 kmh 25.22 in854.0 mb 0.00 in0.0 mm 0.00 in/hr0.0 mm/hr 0.00 in0.0 mm
12:50 PM 73.2°F22.9°C 48.0°F8.9°C 41% 8.0 mph N12.9 kmh N 13.4 mph21.6 kmh 25.22 in854.0 mb 0.00 in0.0 mm 0.00 in/hr0.0 mm/hr 0.00 in0.0 mm
12:45 PM 73.0°F22.8°C 48.6°F9.2°C 42% 6.0 mph NW9.7 kmh NW 15.4 mph24.8 kmh 25.25 in855.1 mb 0.00 in0.0 mm 0.00 in/hr0.0 mm/hr 0.00 in0.0 mm
12:40 PM 73.2°F22.9°C 50.0°F10.0°C 44% 6.0 mph NW9.7 kmh NW 11.6 mph18.7 kmh 25.25 in855.1 mb 0.00 in0.0 mm 0.00 in/hr0.0 mm/hr 0.00 in0.0 mm
12:35 PM 72.1°F22.3°C 50.2°F10.1°C 46% 8.0 mph NW12.9 kmh NW 12.5 mph20.1 kmh 25.25 in855.1 mb 0.00 in0.0 mm 0.00 in/hr0.0 mm/hr 0.00 in0.0 mm
12:30 PM 72.1°F22.3°C 49.6°F9.8°C 45% 8.0 mph NW12.9 kmh NW 14.8 mph23.8 kmh 25.25 in855.1 mb 0.00 in0.0 mm 0.00 in/hr0.0 mm/hr 0.00 in0.0 mm
12:25 PM 72.9°F22.7°C 49.1°F9.5°C 43% 8.0 mph NNW12.9 kmh NNW 15.2 mph24.5 kmh 25.25 in855.1 mb 0.00 in0.0 mm 0.00 in/hr0.0 mm/hr 0.00 in0.0 mm
12:20 PM 73.6°F23.1°C 49.6°F9.8°C 43% 8.0 mph NNW12.9 kmh NNW 13.9 mph22.4 kmh 25.25 in855.1 mb 0.00 in0.0 mm 0.00 in/hr0.0 mm/hr 0.00 in0.0 mm
12:15 PM 73.4°F23.0°C 48.9°F9.4°C 42% 8.0 mph NW12.9 kmh NW 13.9 mph22.4 kmh 25.25 in855.1 mb 0.00 in0.0 mm 0.00 in/hr0.0 mm/hr 0.00 in0.0 mm
12:10 PM 73.0°F22.8°C 45.9°F7.7°C 38% 10.0 mph NW16.1 kmh NW 15.9 mph25.6 kmh 25.25 in855.1 mb 0.00 in0.0 mm 0.00 in/hr0.0 mm/hr 0.00 in0.0 mm
12:05 PM 73.8°F23.2°C 43.7°F6.5°C 34% 10.0 mph NNW16.1 kmh NNW 15.9 mph25.6 kmh 25.25 in855.1 mb 0.00 in0.0 mm 0.00 in/hr0.0 mm/hr 0.00 in0.0 mm
12:00 PM 74.5°F23.6°C 43.5°F6.4°C 33% 9.0 mph NNW14.5 kmh NNW 16.8 mph27.0 kmh 25.25 in855.1 mb 0.00 in0.0 mm 0.00 in/hr0.0 mm/hr 0.00 in0.0 mm
11:55 AM 74.3°F23.5°C 43.3°F6.3°C 33% 9.0 mph NNW14.5 kmh NNW 12.1 mph19.5 kmh 25.25 in855.1 mb 0.00 in0.0 mm 0.00 in/hr0.0 mm/hr 0.00 in0.0 mm
11:50 AM 74.5°F23.6°C 43.5°F6.4°C 33% 10.0 mph NNW16.1 kmh NNW 14.8 mph23.8 kmh 25.25 in855.1 mb 0.00 in0.0 mm 0.00 in/hr0.0 mm/hr 0.00 in0.0 mm
11:45 AM 75.6°F24.2°C 44.4°F6.9°C 33% 9.0 mph NNW14.5 kmh NNW 13.9 mph22.4 kmh 25.25 in855.1 mb 0.00 in0.0 mm 0.00 in/hr0.0 mm/hr 0.00 in0.0 mm
11:40 AM 74.1°F23.4°C 46.9°F8.3°C 38% 9.0 mph NNW14.5 kmh NNW 13.0 mph20.9 kmh 25.25 in855.1 mb 0.00 in0.0 mm 0.00 in/hr0.0 mm/hr 0.00 in0.0 mm
11:35 AM 73.9°F23.3°C 48.0°F8.9°C 40% 9.0 mph NNW14.5 kmh NNW 14.3 mph23.0 kmh 25.25 in855.1 mb 0.00 in0.0 mm 0.00 in/hr0.0 mm/hr 0.00 in0.0 mm
11:30 AM 72.7°F22.6°C 47.7°F8.7°C 41% 10.0 mph NNW16.1 kmh NNW 15.2 mph24.5 kmh 25.25 in855.1 mb 0.00 in0.0 mm 0.00 in/hr0.0 mm/hr 0.00 in0.0 mm
11:25 AM 73.6°F23.1°C 44.2°F6.8°C 35% 11.0 mph N17.7 kmh N 16.3 mph26.2 kmh 25.25 in855.1 mb 0.00 in0.0 mm 0.00 in/hr0.0 mm/hr 0.00 in0.0 mm
11:20 AM 73.0°F22.8°C 43.0°F6.1°C 34% 11.0 mph N17.7 kmh N 17.2 mph27.7 kmh 25.25 in855.1 mb 0.00 in0.0 mm 0.00 in/hr0.0 mm/hr 0.00 in0.0 mm
11:15 AM 73.0°F22.8°C 43.0°F6.1°C 34% 10.0 mph NNW16.1 kmh NNW 14.8 mph23.8 kmh 25.25 in855.1 mb 0.00 in0.0 mm 0.00 in/hr0.0 mm/hr 0.00 in0.0 mm
11:10 AM 72.0°F22.2°C 47.7°F8.7°C 42% 8.0 mph NW12.9 kmh NW 15.2 mph24.5 kmh 25.25 in855.1 mb 0.00 in0.0 mm 0.00 in/hr0.0 mm/hr 0.00 in0.0 mm
11:05 AM 68.2°F20.1°C 52.3°F11.3°C 57% 8.0 mph NW12.9 kmh NW 12.5 mph20.1 kmh 25.25 in855.1 mb 0.00 in0.0 mm 0.00 in/hr0.0 mm/hr 0.00 in0.0 mm
11:00 AM 66.9°F19.4°C 52.2°F11.2°C 59% 9.0 mph NW14.5 kmh NW 13.9 mph22.4 kmh 25.25 in855.1 mb 0.00 in0.0 mm 0.00 in/hr0.0 mm/hr 0.00 in0.0 mm
10:55 AM 66.9°F19.4°C 51.3°F10.7°C 57% 9.0 mph NW14.5 kmh NW 14.3 mph23.0 kmh 25.25 in855.1 mb 0.00 in0.0 mm 0.00 in/hr0.0 mm/hr 0.00 in0.0 mm
10:50 AM 67.1°F19.5°C 50.4°F10.2°C 55% 9.0 mph NW14.5 kmh NW 14.3 mph23.0 kmh 25.25 in855.1 mb 0.00 in0.0 mm 0.00 in/hr0.0 mm/hr 0.00 in0.0 mm
10:45 AM 66.7°F19.3°C 49.6°F9.8°C 54% 9.0 mph NW14.5 kmh NW 14.3 mph23.0 kmh 25.25 in855.1 mb 0.00 in0.0 mm 0.00 in/hr0.0 mm/hr 0.00 in0.0 mm
10:40 AM 66.9°F19.4°C 48.2°F9.0°C 51% 10.0 mph NNW16.1 kmh NNW 13.4 mph21.6 kmh 25.25 in855.1 mb 0.00 in0.0 mm 0.00 in/hr0.0 mm/hr 0.00 in0.0 mm
10:35 AM 69.1°F20.6°C 44.4°F6.9°C 41% 10.0 mph N16.1 kmh N 14.8 mph23.8 kmh 25.25 in855.1 mb 0.00 in0.0 mm 0.00 in/hr0.0 mm/hr 0.00 in0.0 mm
10:30 AM 68.9°F20.5°C 44.2°F6.8°C 41% 11.0 mph NNE17.7 kmh NNE 17.7 mph28.5 kmh 25.25 in855.1 mb 0.00 in0.0 mm 0.00 in/hr0.0 mm/hr 0.00 in0.0 mm
10:25 AM 68.5°F20.3°C 45.1°F7.3°C 43% 10.0 mph NNE16.1 kmh NNE 16.3 mph26.2 kmh 25.25 in855.1 mb 0.00 in0.0 mm 0.00 in/hr0.0 mm/hr 0.00 in0.0 mm
10:20 AM 68.5°F20.3°C 44.6°F7.0°C 42% 9.0 mph NE14.5 kmh NE 19.5 mph31.4 kmh 25.25 in855.1 mb 0.00 in0.0 mm 0.00 in/hr0.0 mm/hr 0.00 in0.0 mm
10:15 AM 68.5°F20.3°C 44.6°F7.0°C 42% 10.0 mph NE16.1 kmh NE 17.2 mph27.7 kmh 25.25 in855.1 mb 0.00 in0.0 mm 0.00 in/hr0.0 mm/hr 0.00 in0.0 mm
10:09 AM 68.4°F20.2°C 45.0°F7.2°C 43% 12.0 mph NE19.3 kmh NE 20.6 mph33.2 kmh 25.25 in855.1 mb 0.00 in0.0 mm 0.00 in/hr0.0 mm/hr 0.00 in0.0 mm
10:03 AM 68.4°F20.2°C 44.4°F6.9°C 42% 13.0 mph NE20.9 kmh NE 24.2 mph38.9 kmh 25.25 in855.1 mb 0.00 in0.0 mm 0.00 in/hr0.0 mm/hr 0.00 in0.0 mm
09:58 AM 68.2°F20.1°C 45.5°F7.5°C 44% 12.0 mph NE19.3 kmh NE 25.7 mph41.4 kmh 25.25 in855.1 mb 0.00 in0.0 mm 0.00 in/hr0.0 mm/hr 0.00 in0.0 mm
09:53 AM 68.0°F20.0°C 45.9°F7.7°C 45% 11.0 mph NE17.7 kmh NE 19.9 mph32.0 kmh 25.25 in855.1 mb 0.00 in0.0 mm 0.00 in/hr0.0 mm/hr 0.00 in0.0 mm
09:48 AM 67.8°F19.9°C 45.7°F7.6°C 45% 11.0 mph NE17.7 kmh NE 18.6 mph29.9 kmh 25.25 in855.1 mb 0.00 in0.0 mm 0.00 in/hr0.0 mm/hr 0.00 in0.0 mm
09:43 AM 67.5°F19.7°C 46.6°F8.1°C 47% 11.0 mph NE17.7 kmh NE 19.9 mph32.0 kmh 25.25 in855.1 mb 0.00 in0.0 mm 0.00 in/hr0.0 mm/hr 0.00 in0.0 mm
09:38 AM 67.5°F19.7°C 46.6°F8.1°C 47% 12.0 mph NE19.3 kmh NE 19.5 mph31.4 kmh 25.25 in855.1 mb 0.00 in0.0 mm 0.00 in/hr0.0 mm/hr 0.00 in0.0 mm
09:33 AM 67.3°F19.6°C 46.9°F8.3°C 48% 12.0 mph NE19.3 kmh NE 19.5 mph31.4 kmh 25.25 in855.1 mb 0.00 in0.0 mm 0.00 in/hr0.0 mm/hr 0.00 in0.0 mm
09:28 AM 67.1°F19.5°C 47.8°F8.8°C 50% 12.0 mph NE19.3 kmh NE 21.5 mph34.6 kmh 25.25 in855.1 mb 0.00 in0.0 mm 0.00 in/hr0.0 mm/hr 0.00 in0.0 mm
09:23 AM 66.9°F19.4°C 47.7°F8.7°C 50% 12.0 mph NE19.3 kmh NE 22.4 mph36.0 kmh 25.25 in855.1 mb 0.00 in0.0 mm 0.00 in/hr0.0 mm/hr 0.00 in0.0 mm
09:18 AM 66.6°F19.2°C 47.8°F8.8°C 51% 12.0 mph NE19.3 kmh NE 20.6 mph33.2 kmh 25.25 in855.1 mb 0.00 in0.0 mm 0.00 in/hr0.0 mm/hr 0.00 in0.0 mm
09:13 AM 66.6°F19.2°C 48.9°F9.4°C 53% 11.0 mph NE17.7 kmh NE 20.6 mph33.2 kmh 25.25 in855.1 mb 0.00 in0.0 mm 0.00 in/hr0.0 mm/hr 0.00 in0.0 mm
09:08 AM 66.6°F19.2°C 48.9°F9.4°C 53% 10.0 mph NE16.1 kmh NE 18.6 mph29.9 kmh 25.25 in855.1 mb 0.00 in0.0 mm 0.00 in/hr0.0 mm/hr 0.00 in0.0 mm
09:03 AM 66.4°F19.1°C 49.3°F9.6°C 54% 10.0 mph NE16.1 kmh NE 15.9 mph25.6 kmh 25.25 in855.1 mb 0.00 in0.0 mm 0.00 in/hr0.0 mm/hr 0.00 in0.0 mm
08:58 AM 66.6°F19.2°C 48.4°F9.1°C 52% 11.0 mph NE17.7 kmh NE 19.0 mph30.6 kmh 25.25 in855.1 mb 0.00 in0.0 mm 0.00 in/hr0.0 mm/hr 0.00 in0.0 mm
08:53 AM 66.7°F19.3°C 48.6°F9.2°C 52% 10.0 mph NE16.1 kmh NE 19.5 mph31.4 kmh 25.25 in855.1 mb 0.00 in0.0 mm 0.00 in/hr0.0 mm/hr 0.00 in0.0 mm
08:48 AM 66.6°F19.2°C 48.9°F9.4°C 53% 8.0 mph NE12.9 kmh NE 19.9 mph32.0 kmh 25.25 in855.1 mb 0.00 in0.0 mm 0.00 in/hr0.0 mm/hr 0.00 in0.0 mm
08:43 AM 66.4°F19.1°C 49.3°F9.6°C 54% 9.0 mph NE14.5 kmh NE 15.9 mph25.6 kmh 25.25 in855.1 mb 0.00 in0.0 mm 0.00 in/hr0.0 mm/hr 0.00 in0.0 mm
08:38 AM 66.4°F19.1°C 49.6°F9.8°C 55% 10.0 mph NNE16.1 kmh NNE 18.6 mph29.9 kmh 25.25 in855.1 mb 0.00 in0.0 mm 0.00 in/hr0.0 mm/hr 0.00 in0.0 mm
08:33 AM 66.2°F19.0°C 50.5°F10.3°C 57% 10.0 mph NNE16.1 kmh NNE 17.7 mph28.5 kmh 25.25 in855.1 mb 0.00 in0.0 mm 0.00 in/hr0.0 mm/hr 0.00 in0.0 mm
08:28 AM 65.5°F18.6°C 52.2°F11.2°C 62% 10.0 mph 16.1 kmh 21.5 mph34.6 kmh 25.25 in855.1 mb 0.00 in0.0 mm 0.00 in/hr0.0 mm/hr 0.00 in0.0 mm
08:23 AM 64.0°F17.8°C 53.2°F11.8°C 68% 10.0 mph 16.1 kmh 15.2 mph24.5 kmh 25.25 in855.1 mb 0.00 in0.0 mm 0.00 in/hr0.0 mm/hr 0.00 in0.0 mm
08:18 AM 64.6°F18.1°C 52.9°F11.6°C 66% 12.0 mph N19.3 kmh N 18.6 mph29.9 kmh 25.25 in855.1 mb 0.00 in0.0 mm 0.00 in/hr0.0 mm/hr 0.00 in0.0 mm
08:13 AM 64.2°F17.9°C 53.4°F11.9°C 68% 14.0 mph N22.5 kmh N 20.6 mph33.2 kmh 25.25 in855.1 mb 0.00 in0.0 mm 0.00 in/hr0.0 mm/hr 0.00 in0.0 mm
08:08 AM 64.2°F17.9°C 54.1°F12.3°C 70% 13.0 mph N20.9 kmh N 17.7 mph28.5 kmh 25.25 in855.1 mb 0.00 in0.0 mm 0.00 in/hr0.0 mm/hr 0.00 in0.0 mm
08:03 AM 63.9°F17.7°C 54.7°F12.6°C 72% 12.0 mph N19.3 kmh N 19.9 mph32.0 kmh 25.25 in855.1 mb 0.00 in0.0 mm 0.00 in/hr0.0 mm/hr 0.00 in0.0 mm
07:58 AM 63.7°F17.6°C 54.5°F12.5°C 72% 11.0 mph NNW17.7 kmh NNW 19.9 mph32.0 kmh 25.25 in855.1 mb 0.00 in0.0 mm 0.00 in/hr0.0 mm/hr 0.00 in0.0 mm
07:53 AM 63.3°F17.4°C 54.5°F12.5°C 73% 11.0 mph NW17.7 kmh NW 16.3 mph26.2 kmh 25.25 in855.1 mb 0.00 in0.0 mm 0.00 in/hr0.0 mm/hr 0.00 in0.0 mm
07:48 AM 63.1°F17.3°C 54.3°F12.4°C 73% 12.0 mph NW19.3 kmh NW 15.4 mph24.8 kmh 25.25 in855.1 mb 0.00 in0.0 mm 0.00 in/hr0.0 mm/hr 0.00 in0.0 mm
07:43 AM 63.7°F17.6°C 53.8°F12.1°C 70% 12.0 mph NNW19.3 kmh NNW 18.6 mph29.9 kmh 25.25 in855.1 mb 0.00 in0.0 mm 0.00 in/hr0.0 mm/hr 0.00 in0.0 mm
07:38 AM 64.0°F17.8°C 52.9°F11.6°C 67% 14.0 mph N22.5 kmh N 18.6 mph29.9 kmh 25.25 in855.1 mb 0.00 in0.0 mm 0.00 in/hr0.0 mm/hr 0.00 in0.0 mm
07:33 AM 64.8°F18.2°C 51.8°F11.0°C 63% 17.0 mph N27.4 kmh N 23.3 mph37.5 kmh 25.25 in855.1 mb 0.00 in0.0 mm 0.00 in/hr0.0 mm/hr 0.00 in0.0 mm
07:28 AM 65.7°F18.7°C 50.5°F10.3°C 58% 19.0 mph N30.6 kmh N 24.2 mph38.9 kmh 25.25 in855.1 mb 0.00 in0.0 mm 0.00 in/hr0.0 mm/hr 0.00 in0.0 mm
07:23 AM 66.2°F19.0°C 49.1°F9.5°C 54% 20.0 mph N32.2 kmh N 28.0 mph45.1 kmh 25.25 in855.1 mb 0.00 in0.0 mm 0.00 in/hr0.0 mm/hr 0.00 in0.0 mm
07:18 AM 66.2°F19.0°C 49.1°F9.5°C 54% 20.0 mph N32.2 kmh N 27.5 mph44.3 kmh 25.25 in855.1 mb 0.00 in0.0 mm 0.00 in/hr0.0 mm/hr 0.00 in0.0 mm
07:13 AM 66.4°F19.1°C 48.7°F9.3°C 53% 21.0 mph N33.8 kmh N 29.1 mph46.8 kmh 25.22 in854.0 mb 0.00 in0.0 mm 0.00 in/hr0.0 mm/hr 0.00 in0.0 mm
07:08 AM 66.7°F19.3°C 48.6°F9.2°C 52% 21.0 mph N33.8 kmh N 33.1 mph53.3 kmh 25.22 in854.0 mb 0.00 in0.0 mm 0.00 in/hr0.0 mm/hr 0.00 in0.0 mm
07:03 AM 66.9°F19.4°C 48.2°F9.0°C 51% 21.0 mph N33.8 kmh N 28.4 mph45.7 kmh 25.22 in854.0 mb 0.00 in0.0 mm 0.00 in/hr0.0 mm/hr 0.00 in0.0 mm
06:58 AM 67.1°F19.5°C 47.8°F8.8°C 50% 21.0 mph N33.8 kmh N 30.4 mph48.9 kmh 25.22 in854.0 mb 0.00 in0.0 mm 0.00 in/hr0.0 mm/hr 0.00 in0.0 mm
06:53 AM 67.5°F19.7°C 47.1°F8.4°C 48% 21.0 mph N33.8 kmh N 31.8 mph51.2 kmh 25.22 in854.0 mb 0.00 in0.0 mm 0.00 in/hr0.0 mm/hr 0.00 in0.0 mm
06:48 AM 68.0°F20.0°C 46.4°F8.0°C 46% 20.0 mph N32.2 kmh N 28.0 mph45.1 kmh 25.22 in854.0 mb 0.00 in0.0 mm 0.00 in/hr0.0 mm/hr 0.00 in0.0 mm
06:43 AM 68.2°F20.1°C 46.0°F7.8°C 45% 20.0 mph N32.2 kmh N 24.4 mph39.3 kmh 25.19 in853.0 mb 0.00 in0.0 mm 0.00 in/hr0.0 mm/hr 0.00 in0.0 mm
06:38 AM 68.5°F20.3°C 45.7°F7.6°C 44% 19.0 mph N30.6 kmh N 29.1 mph46.8 kmh 25.19 in853.0 mb 0.00 in0.0 mm 0.00 in/hr0.0 mm/hr 0.00 in0.0 mm
06:33 AM 68.9°F20.5°C 45.5°F7.5°C 43% 18.0 mph N29.0 kmh N 23.7 mph38.1 kmh 25.19 in853.0 mb 0.00 in0.0 mm 0.00 in/hr0.0 mm/hr 0.00 in0.0 mm
06:28 AM 68.9°F20.5°C 45.5°F7.5°C 43% 18.0 mph N29.0 kmh N 28.0 mph45.1 kmh 25.19 in853.0 mb 0.00 in0.0 mm 0.00 in/hr0.0 mm/hr 0.00 in0.0 mm
06:23 AM 69.4°F20.8°C 44.1°F6.7°C 40% 18.0 mph N29.0 kmh N 24.8 mph39.9 kmh 25.19 in853.0 mb 0.00 in0.0 mm 0.00 in/hr0.0 mm/hr 0.00 in0.0 mm
06:18 AM 69.6°F20.9°C 42.8°F6.0°C 38% 18.0 mph N29.0 kmh N 24.8 mph39.9 kmh 25.19 in853.0 mb 0.00 in0.0 mm 0.00 in/hr0.0 mm/hr 0.00 in0.0 mm
06:13 AM 70.0°F21.1°C 41.7°F5.4°C 36% 17.0 mph N27.4 kmh N 23.7 mph38.1 kmh 25.19 in853.0 mb 0.00 in0.0 mm 0.00 in/hr0.0 mm/hr 0.00 in0.0 mm
06:08 AM 70.7°F21.5°C 39.4°F4.1°C 32% 18.0 mph N29.0 kmh N 22.4 mph36.0 kmh 25.19 in853.0 mb 0.00 in0.0 mm 0.00 in/hr0.0 mm/hr 0.00 in0.0 mm
06:03 AM 71.4°F21.9°C 37.6°F3.1°C 29% 19.0 mph N30.6 kmh N 24.2 mph38.9 kmh 25.19 in853.0 mb 0.00 in0.0 mm 0.00 in/hr0.0 mm/hr 0.00 in0.0 mm
05:58 AM 72.3°F22.4°C 34.5°F1.4°C 25% 19.0 mph N30.6 kmh N 27.1 mph43.6 kmh 25.16 in852.0 mb 0.00 in0.0 mm 0.00 in/hr0.0 mm/hr 0.00 in0.0 mm
05:53 AM 73.2°F22.9°C 33.3°F0.7°C 23% 17.0 mph N27.4 kmh N 24.4 mph39.3 kmh 25.16 in852.0 mb 0.00 in0.0 mm 0.00 in/hr0.0 mm/hr 0.00 in0.0 mm
05:48 AM 74.7°F23.7°C 34.3°F1.3°C 23% 15.0 mph N24.1 kmh N 23.3 mph37.5 kmh 25.16 in852.0 mb 0.00 in0.0 mm 0.00 in/hr0.0 mm/hr 0.00 in0.0 mm
05:43 AM 74.8°F23.8°C 34.5°F1.4°C 23% 14.0 mph N22.5 kmh N 22.4 mph36.0 kmh 25.16 in852.0 mb 0.00 in0.0 mm 0.00 in/hr0.0 mm/hr 0.00 in0.0 mm
05:38 AM 75.4°F24.1°C 33.8°F1.0°C 22% 10.0 mph NNE16.1 kmh NNE 23.3 mph37.5 kmh 25.16 in852.0 mb 0.00 in0.0 mm 0.00 in/hr0.0 mm/hr 0.00 in0.0 mm
05:33 AM 74.3°F23.5°C 34.2°F1.2°C 23% 6.0 mph NE9.7 kmh NE 16.8 mph27.0 kmh 25.16 in852.0 mb 0.00 in0.0 mm 0.00 in/hr0.0 mm/hr 0.00 in0.0 mm
05:28 AM 71.2°F21.8°C 34.5°F1.4°C 26% 2.0 mph NE3.2 kmh NE 8.7 mph14.0 kmh 25.16 in852.0 mb 0.00 in0.0 mm 0.00 in/hr0.0 mm/hr 0.00 in0.0 mm
05:23 AM 70.3°F21.3°C 32.9°F0.5°C 25% 1.0 mph NNE1.6 kmh NNE 4.0 mph6.4 kmh 25.16 in852.0 mb 0.00 in0.0 mm 0.00 in/hr0.0 mm/hr 0.00 in0.0 mm
05:18 AM 70.7°F21.5°C 32.2°F0.1°C 24% 3.0 mph N4.8 kmh N 4.5 mph7.2 kmh 25.16 in852.0 mb 0.00 in0.0 mm 0.00 in/hr0.0 mm/hr 0.00 in0.0 mm
05:13 AM 71.1°F21.7°C 32.4°F0.2°C 24% 5.0 mph N8.0 kmh N 7.4 mph11.9 kmh 25.16 in852.0 mb 0.00 in0.0 mm 0.00 in/hr0.0 mm/hr 0.00 in0.0 mm
05:08 AM 70.3°F21.3°C 32.9°F0.5°C 25% 4.0 mph NNW6.4 kmh NNW 6.9 mph11.1 kmh 25.16 in852.0 mb 0.00 in0.0 mm 0.00 in/hr0.0 mm/hr 0.00 in0.0 mm
05:03 AM 70.3°F21.3°C 32.9°F0.5°C 25% 2.0 mph NW3.2 kmh NW 7.8 mph12.6 kmh 25.16 in852.0 mb 0.00 in0.0 mm 0.00 in/hr0.0 mm/hr 0.00 in0.0 mm
04:58 AM 70.2°F21.2°C 31.6°F-0.2°C 24% 2.0 mph NW3.2 kmh NW 4.0 mph6.4 kmh 25.16 in852.0 mb 0.00 in0.0 mm 0.00 in/hr0.0 mm/hr 0.00 in0.0 mm
04:53 AM 70.3°F21.3°C 31.8°F-0.1°C 24% 3.0 mph NNW4.8 kmh NNW 4.9 mph7.9 kmh 25.16 in852.0 mb 0.00 in0.0 mm 0.00 in/hr0.0 mm/hr 0.00 in0.0 mm
04:48 AM 70.7°F21.5°C 31.1°F-0.5°C 23% 2.0 mph NE3.2 kmh NE 6.3 mph10.1 kmh 25.16 in852.0 mb 0.00 in0.0 mm 0.00 in/hr0.0 mm/hr 0.00 in0.0 mm
04:43 AM 70.7°F21.5°C 31.1°F-0.5°C 23% 1.0 mph NE1.6 kmh NE 3.1 mph5.0 kmh 25.16 in852.0 mb 0.00 in0.0 mm 0.00 in/hr0.0 mm/hr 0.00 in0.0 mm
04:38 AM 71.1°F21.7°C 31.5°F-0.3°C 23% 3.0 mph NE4.8 kmh NE 5.4 mph8.7 kmh 25.16 in852.0 mb 0.00 in0.0 mm 0.00 in/hr0.0 mm/hr 0.00 in0.0 mm
04:33 AM 71.2°F21.8°C 30.4°F-0.9°C 22% 4.0 mph NE6.4 kmh NE 7.4 mph11.9 kmh 25.16 in852.0 mb 0.00 in0.0 mm 0.00 in/hr0.0 mm/hr 0.00 in0.0 mm
04:28 AM 71.6°F22.0°C 30.7°F-0.7°C 22% 4.0 mph N6.4 kmh N 11.0 mph17.7 kmh 25.16 in852.0 mb 0.00 in0.0 mm 0.00 in/hr0.0 mm/hr 0.00 in0.0 mm
04:23 AM 71.8°F22.1°C 30.9°F-0.6°C 22% 5.0 mph NNW8.0 kmh NNW 11.0 mph17.7 kmh 25.16 in852.0 mb 0.00 in0.0 mm 0.00 in/hr0.0 mm/hr 0.00 in0.0 mm
04:18 AM 72.0°F22.2°C 31.1°F-0.5°C 22% 7.0 mph NW11.3 kmh NW 12.5 mph20.1 kmh 25.16 in852.0 mb 0.00 in0.0 mm 0.00 in/hr0.0 mm/hr 0.00 in0.0 mm
04:13 AM 72.1°F22.3°C 31.1°F-0.5°C 22% 6.0 mph W9.7 kmh W 11.0 mph17.7 kmh 25.16 in852.0 mb 0.00 in0.0 mm 0.00 in/hr0.0 mm/hr 0.00 in0.0 mm
04:08 AM 72.0°F22.2°C 31.1°F-0.5°C 22% 5.0 mph WSW8.0 kmh WSW 10.1 mph16.3 kmh 25.16 in852.0 mb 0.00 in0.0 mm 0.00 in/hr0.0 mm/hr 0.00 in0.0 mm
04:03 AM 71.4°F21.9°C 30.6°F-0.8°C 22% 5.0 mph W8.0 kmh W 6.9 mph11.1 kmh 25.16 in852.0 mb 0.00 in0.0 mm 0.00 in/hr0.0 mm/hr 0.00 in0.0 mm
03:58 AM 71.8°F22.1°C 30.9°F-0.6°C 22% 7.0 mph W11.3 kmh W 12.1 mph19.5 kmh 25.13 in851.0 mb 0.00 in0.0 mm 0.00 in/hr0.0 mm/hr 0.00 in0.0 mm
03:53 AM 71.6°F22.0°C 30.7°F-0.7°C 22% 7.0 mph SW11.3 kmh SW 13.0 mph20.9 kmh 25.13 in851.0 mb 0.00 in0.0 mm 0.00 in/hr0.0 mm/hr 0.00 in0.0 mm
03:48 AM 71.2°F21.8°C 30.4°F-0.9°C 22% 7.0 mph S11.3 kmh S 9.6 mph15.4 kmh 25.13 in851.0 mb 0.00 in0.0 mm 0.00 in/hr0.0 mm/hr 0.00 in0.0 mm
03:43 AM 71.2°F21.8°C 30.4°F-0.9°C 22% 8.0 mph S12.9 kmh S 11.0 mph17.7 kmh 25.13 in851.0 mb 0.00 in0.0 mm 0.00 in/hr0.0 mm/hr 0.00 in0.0 mm
03:38 AM 71.4°F21.9°C 30.6°F-0.8°C 22% 7.0 mph SSW11.3 kmh SSW 12.5 mph20.1 kmh 25.13 in851.0 mb 0.00 in0.0 mm 0.00 in/hr0.0 mm/hr 0.00 in0.0 mm
03:33 AM 71.8°F22.1°C 30.9°F-0.6°C 22% 5.0 mph W8.0 kmh W 10.5 mph16.9 kmh 25.13 in851.0 mb 0.00 in0.0 mm 0.00 in/hr0.0 mm/hr 0.00 in0.0 mm
03:28 AM 71.8°F22.1°C 30.9°F-0.6°C 22% 5.0 mph NW8.0 kmh NW 7.4 mph11.9 kmh 25.13 in851.0 mb 0.00 in0.0 mm 0.00 in/hr0.0 mm/hr 0.00 in0.0 mm
03:23 AM 71.8°F22.1°C 30.9°F-0.6°C 22% 7.0 mph WNW11.3 kmh WNW 11.0 mph17.7 kmh 25.13 in851.0 mb 0.00 in0.0 mm 0.00 in/hr0.0 mm/hr 0.00 in0.0 mm
03:18 AM 71.6°F22.0°C 29.7°F-1.3°C 21% 7.0 mph NW11.3 kmh NW 11.2 mph18.0 kmh 25.13 in851.0 mb 0.00 in0.0 mm 0.00 in/hr0.0 mm/hr 0.00 in0.0 mm
03:13 AM 71.6°F22.0°C 29.7°F-1.3°C 21% 6.0 mph NW9.7 kmh NW 11.2 mph18.0 kmh 25.10 in850.0 mb 0.00 in0.0 mm 0.00 in/hr0.0 mm/hr 0.00 in0.0 mm
03:08 AM 71.8°F22.1°C 23.2°F-4.9°C 16% 7.0 mph NW11.3 kmh NW 9.2 mph14.8 kmh 25.10 in850.0 mb 0.00 in0.0 mm 0.00 in/hr0.0 mm/hr 0.00 in0.0 mm
03:03 AM 73.2°F22.9°C 19.4°F-7.0°C 13% 8.0 mph NNW12.9 kmh NNW 11.0 mph17.7 kmh 25.10 in850.0 mb 0.00 in0.0 mm 0.00 in/hr0.0 mm/hr 0.00 in0.0 mm
02:58 AM 77.2°F25.1°C -5537.2°C - 10.0 mph NNE16.1 kmh NNE 17.7 mph28.5 kmh 25.10 in850.0 mb 0.00 in0.0 mm 0.00 in/hr0.0 mm/hr 0.00 in0.0 mm
02:53 AM 77.4°F25.2°C -5537.2°C - 12.0 mph NNE19.3 kmh NNE 19.0 mph30.6 kmh 25.10 in850.0 mb 0.00 in0.0 mm 0.00 in/hr0.0 mm/hr 0.00 in0.0 mm
02:48 AM 77.5°F25.3°C -5537.2°C - 13.0 mph NNE20.9 kmh NNE 23.3 mph37.5 kmh 25.10 in850.0 mb 0.00 in0.0 mm 0.00 in/hr0.0 mm/hr 0.00 in0.0 mm
02:43 AM 77.4°F25.2°C -5537.2°C - 13.0 mph NNE20.9 kmh NNE 22.4 mph36.0 kmh 25.10 in850.0 mb 0.00 in0.0 mm 0.00 in/hr0.0 mm/hr 0.00 in0.0 mm
02:38 AM 77.4°F25.2°C -5537.2°C - 12.0 mph N19.3 kmh N 18.6 mph29.9 kmh 25.10 in850.0 mb 0.00 in0.0 mm 0.00 in/hr0.0 mm/hr 0.00 in0.0 mm
02:33 AM 77.0°F25.0°C -5537.2°C - 11.0 mph NNE17.7 kmh NNE 15.4 mph24.8 kmh 25.10 in850.0 mb 0.00 in0.0 mm 0.00 in/hr0.0 mm/hr 0.00 in0.0 mm
02:28 AM 76.8°F24.9°C -5537.2°C - 12.0 mph NNE19.3 kmh NNE 18.6 mph29.9 kmh 25.10 in850.0 mb 0.00 in0.0 mm 0.00 in/hr0.0 mm/hr 0.00 in0.0 mm
02:23 AM 77.0°F25.0°C -5537.2°C - 12.0 mph N19.3 kmh N 22.4 mph36.0 kmh 25.10 in850.0 mb 0.00 in0.0 mm 0.00 in/hr0.0 mm/hr 0.00 in0.0 mm
02:18 AM 76.3°F24.6°C 21.7°F-5.7°C 13% 8.0 mph N12.9 kmh N 16.8 mph27.0 kmh 25.10 in850.0 mb 0.00 in0.0 mm 0.00 in/hr0.0 mm/hr 0.00 in0.0 mm
02:13 AM 74.1°F23.4°C 25.0°F-3.9°C 16% 6.0 mph NNW9.7 kmh NNW 12.5 mph20.1 kmh 25.10 in850.0 mb 0.00 in0.0 mm 0.00 in/hr0.0 mm/hr 0.00 in0.0 mm
02:08 AM 73.0°F22.8°C 24.3°F-4.3°C 16% 7.0 mph NW11.3 kmh NW 9.2 mph14.8 kmh 25.10 in850.0 mb 0.00 in0.0 mm 0.00 in/hr0.0 mm/hr 0.00 in0.0 mm
02:03 AM 73.0°F22.8°C 24.3°F-4.3°C 16% 7.0 mph NW11.3 kmh NW 10.1 mph16.3 kmh 25.10 in850.0 mb 0.00 in0.0 mm 0.00 in/hr0.0 mm/hr 0.00 in0.0 mm
01:58 AM 72.9°F22.7°C 24.1°F-4.4°C 16% 7.0 mph NW11.3 kmh NW 11.0 mph17.7 kmh 25.10 in850.0 mb 0.00 in0.0 mm 0.00 in/hr0.0 mm/hr 0.00 in0.0 mm
01:53 AM 73.6°F23.1°C 19.8°F-6.8°C 13% 6.0 mph NW9.7 kmh NW 11.0 mph17.7 kmh 25.10 in850.0 mb 0.00 in0.0 mm 0.00 in/hr0.0 mm/hr 0.00 in0.0 mm
01:48 AM 73.8°F23.2°C 19.9°F-6.7°C 13% 6.0 mph NW9.7 kmh NW 9.2 mph14.8 kmh 25.10 in850.0 mb 0.00 in0.0 mm 0.00 in/hr0.0 mm/hr 0.00 in0.0 mm
01:43 AM 73.4°F23.0°C 19.6°F-6.9°C 13% 6.0 mph NW9.7 kmh NW 8.7 mph14.0 kmh 25.10 in850.0 mb 0.00 in0.0 mm 0.00 in/hr0.0 mm/hr 0.00 in0.0 mm
01:38 AM 73.0°F22.8°C 19.2°F-7.1°C 13% 6.0 mph NW9.7 kmh NW 9.6 mph15.4 kmh 25.10 in850.0 mb 0.00 in0.0 mm 0.00 in/hr0.0 mm/hr 0.00 in0.0 mm
01:33 AM 73.0°F22.8°C 19.2°F-7.1°C 13% 6.0 mph NW9.7 kmh NW 9.6 mph15.4 kmh 25.10 in850.0 mb 0.00 in0.0 mm 0.00 in/hr0.0 mm/hr 0.00 in0.0 mm
01:28 AM 74.7°F23.7°C -5537.2°C - 6.0 mph NNW9.7 kmh NNW 14.3 mph23.0 kmh 25.10 in850.0 mb 0.00 in0.0 mm 0.00 in/hr0.0 mm/hr 0.00 in0.0 mm
01:23 AM 76.1°F24.5°C -5537.2°C - 6.0 mph NNW9.7 kmh NNW 13.4 mph21.6 kmh 25.10 in850.0 mb 0.00 in0.0 mm 0.00 in/hr0.0 mm/hr 0.00 in0.0 mm
01:18 AM 75.7°F24.3°C -5537.2°C - 6.0 mph NW9.7 kmh NW 10.1 mph16.3 kmh 25.10 in850.0 mb 0.00 in0.0 mm 0.00 in/hr0.0 mm/hr 0.00 in0.0 mm
01:13 AM 75.4°F24.1°C -5537.2°C - 7.0 mph NW11.3 kmh NW 10.5 mph16.9 kmh 25.10 in850.0 mb 0.00 in0.0 mm 0.00 in/hr0.0 mm/hr 0.00 in0.0 mm
01:08 AM 75.9°F24.4°C -5537.2°C - 6.0 mph NNW9.7 kmh NNW 10.1 mph16.3 kmh 25.10 in850.0 mb 0.00 in0.0 mm 0.00 in/hr0.0 mm/hr 0.00 in0.0 mm
01:03 AM 76.5°F24.7°C -5537.2°C - 7.0 mph NNW11.3 kmh NNW 10.1 mph16.3 kmh 25.10 in850.0 mb 0.00 in0.0 mm 0.00 in/hr0.0 mm/hr 0.00 in0.0 mm
12:58 AM 77.0°F25.0°C -5537.2°C - 7.0 mph N11.3 kmh N 10.1 mph16.3 kmh 25.10 in850.0 mb 0.00 in0.0 mm 0.00 in/hr0.0 mm/hr 0.00 in0.0 mm
12:52 AM 77.2°F25.1°C -5537.2°C - 8.0 mph 12.9 kmh 11.0 mph17.7 kmh 25.10 in850.0 mb 0.00 in0.0 mm 0.00 in/hr0.0 mm/hr 0.00 in0.0 mm
12:47 AM 77.9°F25.5°C -5537.2°C - 10.0 mph N16.1 kmh N 15.4 mph24.8 kmh 25.10 in850.0 mb 0.00 in0.0 mm 0.00 in/hr0.0 mm/hr 0.00 in0.0 mm
12:42 AM 77.7°F25.4°C -5537.2°C - 10.0 mph N16.1 kmh N 19.9 mph32.0 kmh 25.10 in850.0 mb 0.00 in0.0 mm 0.00 in/hr0.0 mm/hr 0.00 in0.0 mm
12:37 AM 76.6°F24.8°C -5537.2°C - 8.0 mph N12.9 kmh N 13.0 mph20.9 kmh 25.10 in850.0 mb 0.00 in0.0 mm 0.00 in/hr0.0 mm/hr 0.00 in0.0 mm
12:32 AM 76.1°F24.5°C -5537.2°C - 6.0 mph N9.7 kmh N 12.1 mph19.5 kmh 25.10 in850.0 mb 0.00 in0.0 mm 0.00 in/hr0.0 mm/hr 0.00 in0.0 mm
12:27 AM 73.6°F23.1°C 19.8°F-6.8°C 13% 5.0 mph N8.0 kmh N 10.1 mph16.3 kmh 25.10 in850.0 mb 0.00 in0.0 mm 0.00 in/hr0.0 mm/hr 0.00 in0.0 mm
12:22 AM 72.1°F22.3°C 20.3°F-6.5°C 14% 5.0 mph NNE8.0 kmh NNE 8.3 mph13.4 kmh 25.10 in850.0 mb 0.00 in0.0 mm 0.00 in/hr0.0 mm/hr 0.00 in0.0 mm
12:17 AM 73.0°F22.8°C 19.2°F-7.1°C 13% 6.0 mph N9.7 kmh N 9.6 mph15.4 kmh 25.10 in850.0 mb 0.00 in0.0 mm 0.00 in/hr0.0 mm/hr 0.00 in0.0 mm
12:12 AM 73.0°F22.8°C 19.2°F-7.1°C 13% 6.0 mph N9.7 kmh N 10.5 mph16.9 kmh 25.10 in850.0 mb 0.00 in0.0 mm 0.00 in/hr0.0 mm/hr 0.00 in0.0 mm
12:07 AM 72.9°F22.7°C 19.2°F-7.1°C 13% 7.0 mph N11.3 kmh N 8.7 mph14.0 kmh 25.10 in850.0 mb 0.00 in0.0 mm 0.00 in/hr0.0 mm/hr 0.00 in0.0 mm
12:02 AM 73.4°F23.0°C 19.6°F-6.9°C 13% 7.0 mph 11.3 kmh 10.5 mph16.9 kmh 25.10 in850.0 mb 0.00 in0.0 mm 0.00 in/hr0.0 mm/hr 0.00 in0.0 mm
WeatherForYou.com, LLC is not responsible for any damages or problems caused by this service. Current weather conditions are obtained from the closest station including government and personal stations which may have varying degrees of accuracy. Weather forecasts are derived from the NOAA NDFD and obtained through HAMweather's Aeris Weather API. Like all things, this site belongs to Jesus Christ... He just trusts me to maintain it. If you have any questions or comments email webmaster@weatherforyou.com

Copyright © 2014, WeatherForYou.com LLC. All rights reserved.